sensor_id;sensor_type;location;lat;lon;timestamp;pressure;altitude;pressure_sealevel;temperature;humidity
80180;BME280;69505;52.134;5.438;2024-02-21T00:01:22;102357.22;;;8.74;100.00
80180;BME280;69505;52.134;5.438;2024-02-21T00:03:49;102360.78;;;8.73;100.00
80180;BME280;69505;52.134;5.438;2024-02-21T00:06:16;102348.44;;;8.73;100.00
80180;BME280;69505;52.134;5.438;2024-02-21T00:08:42;102341.34;;;8.74;100.00
80180;BME280;69505;52.134;5.438;2024-02-21T00:11:09;102329.16;;;8.70;100.00
80180;BME280;69505;52.134;5.438;2024-02-21T00:13:36;102317.78;;;8.68;100.00
80180;BME280;69505;52.134;5.438;2024-02-21T00:16:03;102314.34;;;8.66;100.00
80180;BME280;69505;52.134;5.438;2024-02-21T00:18:29;102319.47;;;8.69;100.00
80180;BME280;69505;52.134;5.438;2024-02-21T00:20:56;102317.72;;;8.69;100.00
80180;BME280;69505;52.134;5.438;2024-02-21T00:23:22;102319.56;;;8.67;100.00
80180;BME280;69505;52.134;5.438;2024-02-21T00:25:49;102315.25;;;8.65;100.00
80180;BME280;69505;52.134;5.438;2024-02-21T00:28:16;102311.69;;;8.66;100.00
80180;BME280;69505;52.134;5.438;2024-02-21T00:30:43;102316.81;;;8.69;100.00
80180;BME280;69505;52.134;5.438;2024-02-21T00:33:10;102315.06;;;8.69;100.00
80180;BME280;69505;52.134;5.438;2024-02-21T00:35:37;102308.97;;;8.67;100.00
80180;BME280;69505;52.134;5.438;2024-02-21T00:38:03;102316.91;;;8.67;100.00
80180;BME280;69505;52.134;5.438;2024-02-21T00:40:30;102313.25;;;8.70;100.00
80180;BME280;69505;52.134;5.438;2024-02-21T00:42:57;102309.75;;;8.69;100.00
80180;BME280;69505;52.134;5.438;2024-02-21T00:45:23;102307.19;;;8.68;100.00
80180;BME280;69505;52.134;5.438;2024-02-21T00:47:50;102302.88;;;8.65;100.00
80180;BME280;69505;52.134;5.438;2024-02-21T00:50:17;102306.50;;;8.63;100.00
80180;BME280;69505;52.134;5.438;2024-02-21T00:52:43;102307.28;;;8.65;100.00
80180;BME280;69505;52.134;5.438;2024-02-21T00:55:11;102313.38;;;8.67;100.00
80180;BME280;69505;52.134;5.438;2024-02-21T00:57:38;102315.25;;;8.65;100.00
80180;BME280;69505;52.134;5.438;2024-02-21T01:00:05;102318.69;;;8.67;100.00
80180;BME280;69505;52.134;5.438;2024-02-21T01:02:31;102327.50;;;8.67;100.00
80180;BME280;69505;52.134;5.438;2024-02-21T01:04:58;102325.00;;;8.64;100.00
80180;BME280;69505;52.134;5.438;2024-02-21T01:07:25;102337.50;;;8.61;100.00
80180;BME280;69505;52.134;5.438;2024-02-21T01:09:51;102333.88;;;8.63;100.00
80180;BME280;69505;52.134;5.438;2024-02-21T01:12:19;102335.59;;;8.64;100.00
80180;BME280;69505;52.134;5.438;2024-02-21T01:14:45;102330.22;;;8.66;100.00
80180;BME280;69505;52.134;5.438;2024-02-21T01:17:16;102326.78;;;8.64;100.00
80180;BME280;69505;52.134;5.438;2024-02-21T01:19:42;102316.19;;;8.64;100.00
80180;BME280;69505;52.134;5.438;2024-02-21T01:22:09;102317.88;;;8.65;100.00
80180;BME280;69505;52.134;5.438;2024-02-21T01:24:35;102317.78;;;8.68;100.00
80180;BME280;69505;52.134;5.438;2024-02-21T01:27:02;102319.63;;;8.66;100.00
80180;BME280;69505;52.134;5.438;2024-02-21T01:29:29;102303.59;;;8.69;100.00
80180;BME280;69505;52.134;5.438;2024-02-21T01:31:55;102302.72;;;8.68;100.00
80180;BME280;69505;52.134;5.438;2024-02-21T01:34:22;102300.16;;;8.67;100.00
80180;BME280;69505;52.134;5.438;2024-02-21T01:36:49;102300.16;;;8.67;100.00
80180;BME280;69505;52.134;5.438;2024-02-21T01:39:16;102298.28;;;8.69;100.00
80180;BME280;69505;52.134;5.438;2024-02-21T01:41:42;102292.28;;;8.65;100.00
80180;BME280;69505;52.134;5.438;2024-02-21T01:44:09;102287.06;;;8.64;100.00
80180;BME280;69505;52.134;5.438;2024-02-21T01:46:36;102282.53;;;8.66;100.00
80180;BME280;69505;52.134;5.438;2024-02-21T01:49:03;102270.22;;;8.65;100.00
80180;BME280;69505;52.134;5.438;2024-02-21T01:51:31;102268.34;;;8.67;100.00
80180;BME280;69505;52.134;5.438;2024-02-21T01:53:58;102263.84;;;8.69;100.00
80180;BME280;69505;52.134;5.438;2024-02-21T01:56:25;102261.19;;;8.69;100.00
80180;BME280;69505;52.134;5.438;2024-02-21T01:58:51;102268.34;;;8.67;100.00
80180;BME280;69505;52.134;5.438;2024-02-21T02:01:18;102269.25;;;8.67;100.00
80180;BME280;69505;52.134;5.438;2024-02-21T02:03:48;102264.81;;;8.68;100.00
80180;BME280;69505;52.134;5.438;2024-02-21T02:06:16;102264.91;;;8.65;100.00
80180;BME280;69505;52.134;5.438;2024-02-21T02:08:43;102257.06;;;8.63;100.00
80180;BME280;69505;52.134;5.438;2024-02-21T02:11:10;102252.63;;;8.64;100.00
80180;BME280;69505;52.134;5.438;2024-02-21T02:13:37;102249.13;;;8.63;100.00
80180;BME280;69505;52.134;5.438;2024-02-21T02:16:04;102244.69;;;8.64;100.00
80180;BME280;69505;52.134;5.438;2024-02-21T02:18:31;102241.19;;;8.63;100.00
80180;BME280;69505;52.134;5.438;2024-02-21T02:20:58;102236.72;;;8.64;100.00
80180;BME280;69505;52.134;5.438;2024-02-21T02:23:29;102230.66;;;8.62;100.00
80180;BME280;69505;52.134;5.438;2024-02-21T02:25:56;102226.25;;;8.61;100.00
80180;BME280;69505;52.134;5.438;2024-02-21T02:28:23;102227.16;;;8.61;100.00
80180;BME280;69505;52.134;5.438;2024-02-21T02:30:50;102225.34;;;8.62;100.00
80180;BME280;69505;52.134;5.438;2024-02-21T02:33:17;102222.69;;;8.62;100.00
80180;BME280;69505;52.134;5.438;2024-02-21T02:35:44;102225.47;;;8.59;100.00
80180;BME280;69505;52.134;5.438;2024-02-21T02:38:11;102220.28;;;8.57;100.00
80180;BME280;69505;52.134;5.438;2024-02-21T02:40:39;102225.41;;;8.60;100.00
80180;BME280;69505;52.134;5.438;2024-02-21T02:43:09;102217.53;;;8.59;100.00
80180;BME280;69505;52.134;5.438;2024-02-21T02:45:36;102215.84;;;8.58;100.00
80180;BME280;69505;52.134;5.438;2024-02-21T02:48:03;102215.84;;;8.58;100.00
80180;BME280;69505;52.134;5.438;2024-02-21T02:50:30;102218.53;;;8.56;100.00
80180;BME280;69505;52.134;5.438;2024-02-21T02:52:57;102215.84;;;8.58;100.00
80180;BME280;69505;52.134;5.438;2024-02-21T02:55:24;102208.69;;;8.60;100.00
80180;BME280;69505;52.134;5.438;2024-02-21T02:57:50;102212.19;;;8.60;100.00
80180;BME280;69505;52.134;5.438;2024-02-21T03:00:17;102205.22;;;8.58;100.00
80180;BME280;69505;52.134;5.438;2024-02-21T03:02:46;102198.19;;;8.57;100.00
80180;BME280;69505;52.134;5.438;2024-02-21T03:05:18;102192.91;;;8.57;100.00
80180;BME280;69505;52.134;5.438;2024-02-21T03:07:45;102185.75;;;8.59;100.00
80180;BME280;69505;52.134;5.438;2024-02-21T03:10:13;102182.41;;;8.55;100.00
80180;BME280;69505;52.134;5.438;2024-02-21T03:12:40;102182.31;;;8.57;100.00
80180;BME280;69505;52.134;5.438;2024-02-21T03:15:07;102184.19;;;8.54;100.00
80180;BME280;69505;52.134;5.438;2024-02-21T03:17:33;102180.63;;;8.56;100.00
80180;BME280;69505;52.134;5.438;2024-02-21T03:20:03;102180.63;;;8.56;100.00
80180;BME280;69505;52.134;5.438;2024-02-21T03:22:38;102178.88;;;8.54;100.00
80180;BME280;69505;52.134;5.438;2024-02-21T03:25:06;102168.44;;;8.51;100.00
80180;BME280;69505;52.134;5.438;2024-02-21T03:27:33;102167.66;;;8.49;100.00
80180;BME280;69505;52.134;5.438;2024-02-21T03:30:00;102165.88;;;8.50;100.00
80180;BME280;69505;52.134;5.438;2024-02-21T03:32:26;102166.75;;;8.50;100.00
80180;BME280;69505;52.134;5.438;2024-02-21T03:34:55;102157.00;;;8.51;100.00
80180;BME280;69505;52.134;5.438;2024-02-21T03:37:21;102145.56;;;8.50;100.00
80180;BME280;69505;52.134;5.438;2024-02-21T03:39:48;102139.38;;;8.50;100.00
80180;BME280;69505;52.134;5.438;2024-02-21T03:42:14;102142.13;;;8.48;100.00
80180;BME280;69505;52.134;5.438;2024-02-21T03:44:41;102137.81;;;8.46;100.00
80180;BME280;69505;52.134;5.438;2024-02-21T03:47:07;102136.97;;;8.45;100.00
80180;BME280;69505;52.134;5.438;2024-02-21T03:49:37;102128.09;;;8.46;100.00
80180;BME280;69505;52.134;5.438;2024-02-21T03:52:04;102131.66;;;8.45;100.00
80180;BME280;69505;52.134;5.438;2024-02-21T03:54:30;102143.19;;;8.44;100.00
80180;BME280;69505;52.134;5.438;2024-02-21T03:56:57;102137.97;;;8.43;100.00
80180;BME280;69505;52.134;5.438;2024-02-21T03:59:23;102133.53;;;8.43;100.00
80180;BME280;69505;52.134;5.438;2024-02-21T04:01:53;102132.75;;;8.41;100.00
80180;BME280;69505;52.134;5.438;2024-02-21T04:04:20;102137.22;;;8.39;100.00
80180;BME280;69505;52.134;5.438;2024-02-21T04:06:48;102141.53;;;8.42;100.00
80180;BME280;69505;52.134;5.438;2024-02-21T04:09:15;102133.66;;;8.40;100.00
80180;BME280;69505;52.134;5.438;2024-02-21T04:11:42;102130.22;;;8.38;100.00
80180;BME280;69505;52.134;5.438;2024-02-21T04:14:09;102138.06;;;8.40;100.00
80180;BME280;69505;52.134;5.438;2024-02-21T04:16:37;102134.56;;;8.39;100.00
80180;BME280;69505;52.134;5.438;2024-02-21T04:19:05;102120.53;;;8.37;100.00
80180;BME280;69505;52.134;5.438;2024-02-21T04:21:32;102112.59;;;8.37;100.00
80180;BME280;69505;52.134;5.438;2024-02-21T04:23:58;102115.31;;;8.36;100.00
80180;BME280;69505;52.134;5.438;2024-02-21T04:26:26;102104.66;;;8.37;100.00
80180;BME280;69505;52.134;5.438;2024-02-21T04:28:52;102108.38;;;8.33;100.00
80180;BME280;69505;52.134;5.438;2024-02-21T04:31:19;102114.63;;;8.32;100.00
80180;BME280;69505;52.134;5.438;2024-02-21T04:33:46;102109.31;;;8.32;100.00
80180;BME280;69505;52.134;5.438;2024-02-21T04:36:12;102104.03;;;8.32;100.00
80180;BME280;69505;52.134;5.438;2024-02-21T04:38:39;102108.38;;;8.33;100.00
80180;BME280;69505;52.134;5.438;2024-02-21T04:41:07;102105.88;;;8.30;100.00
80180;BME280;69505;52.134;5.438;2024-02-21T04:43:34;102103.09;;;8.33;100.00
80180;BME280;69505;52.134;5.438;2024-02-21T04:46:01;102098.72;;;8.32;100.00
80180;BME280;69505;52.134;5.438;2024-02-21T04:48:28;102094.28;;;8.32;100.00
80180;BME280;69505;52.134;5.438;2024-02-21T04:50:55;102079.25;;;8.33;100.00
80180;BME280;69505;52.134;5.438;2024-02-21T04:53:21;102088.16;;;8.32;100.00
80180;BME280;69505;52.134;5.438;2024-02-21T04:55:48;102078.47;;;8.31;100.00
80180;BME280;69505;52.134;5.438;2024-02-21T04:58:15;102083.75;;;8.31;100.00
80180;BME280;69505;52.134;5.438;2024-02-21T05:00:41;102084.56;;;8.33;100.00
80180;BME280;69505;52.134;5.438;2024-02-21T05:03:08;102077.41;;;8.35;100.00
80180;BME280;69505;52.134;5.438;2024-02-21T05:05:34;102082.63;;;8.37;100.00
80180;BME280;69505;52.134;5.438;2024-02-21T05:08:02;102086.13;;;8.37;100.00
80180;BME280;69505;52.134;5.438;2024-02-21T05:10:29;102088.00;;;8.35;100.00
80180;BME280;69505;52.134;5.438;2024-02-21T05:12:57;102085.34;;;8.35;100.00
80180;BME280;69505;52.134;5.438;2024-02-21T05:15:23;102089.84;;;8.33;100.00
80180;BME280;69505;52.134;5.438;2024-02-21T05:17:50;102076.47;;;8.36;100.00
80180;BME280;69505;52.134;5.438;2024-02-21T05:20:17;102067.59;;;8.37;100.00
80180;BME280;69505;52.134;5.438;2024-02-21T05:22:43;102063.25;;;8.36;100.00
80180;BME280;69505;52.134;5.438;2024-02-21T05:25:10;102058.03;;;8.34;100.00
80180;BME280;69505;52.134;5.438;2024-02-21T05:27:37;102052.72;;;8.34;100.00
80180;BME280;69505;52.134;5.438;2024-02-21T05:30:05;102053.56;;;8.35;100.00
80180;BME280;69505;52.134;5.438;2024-02-21T05:32:33;102044.91;;;8.31;100.00
80180;BME280;69505;52.134;5.438;2024-02-21T05:34:59;102044.06;;;8.31;100.00
80180;BME280;69505;52.134;5.438;2024-02-21T05:37:26;102035.34;;;8.29;100.00
80180;BME280;69505;52.134;5.438;2024-02-21T05:39:53;102025.63;;;8.29;100.00
80180;BME280;69505;52.134;5.438;2024-02-21T05:42:19;102019.47;;;8.29;100.00
80180;BME280;69505;52.134;5.438;2024-02-21T05:44:46;102029.19;;;8.28;100.00
80180;BME280;69505;52.134;5.438;2024-02-21T05:47:13;102025.69;;;8.28;100.00
80180;BME280;69505;52.134;5.438;2024-02-21T05:49:41;102021.31;;;8.27;100.00
80180;BME280;69505;52.134;5.438;2024-02-21T05:52:08;102015.09;;;8.28;100.00
80180;BME280;69505;52.134;5.438;2024-02-21T05:54:37;102007.16;;;8.28;100.00
80180;BME280;69505;52.134;5.438;2024-02-21T05:57:04;101999.22;;;8.28;100.00
80180;BME280;69505;52.134;5.438;2024-02-21T05:59:30;102002.78;;;8.27;100.00
80180;BME280;69505;52.134;5.438;2024-02-21T06:01:57;102001.09;;;8.26;100.00
80180;BME280;69505;52.134;5.438;2024-02-21T06:04:24;101995.81;;;8.26;100.00
80180;BME280;69505;52.134;5.438;2024-02-21T06:06:51;101996.66;;;8.26;100.00
80180;BME280;69505;52.134;5.438;2024-02-21T06:09:18;101993.09;;;8.27;100.00
80180;BME280;69505;52.134;5.438;2024-02-21T06:11:44;101997.50;;;8.27;100.00
80180;BME280;69505;52.134;5.438;2024-02-21T06:14:13;101991.41;;;8.25;100.00
80180;BME280;69505;52.134;5.438;2024-02-21T06:16:39;101989.72;;;8.24;100.00
80180;BME280;69505;52.134;5.438;2024-02-21T06:19:06;101984.44;;;8.24;100.00
80180;BME280;69505;52.134;5.438;2024-02-21T06:21:36;101982.78;;;8.21;100.00
80180;BME280;69505;52.134;5.438;2024-02-21T06:24:03;101981.91;;;8.21;100.00
80180;BME280;69505;52.134;5.438;2024-02-21T06:26:30;101991.59;;;8.22;100.00
80180;BME280;69505;52.134;5.438;2024-02-21T06:28:56;101993.44;;;8.20;100.00
80180;BME280;69505;52.134;5.438;2024-02-21T06:31:24;101996.94;;;8.20;100.00
80180;BME280;69505;52.134;5.438;2024-02-21T06:33:50;101996.22;;;8.17;100.00
80180;BME280;69505;52.134;5.438;2024-02-21T06:36:17;102003.31;;;8.16;100.00
80180;BME280;69505;52.134;5.438;2024-02-21T06:38:44;101999.03;;;8.13;100.00
80180;BME280;69505;52.134;5.438;2024-02-21T06:41:17;101999.94;;;8.12;100.00
80180;BME280;69505;52.134;5.438;2024-02-21T06:43:46;101995.59;;;8.11;100.00
80180;BME280;69505;52.134;5.438;2024-02-21T06:46:23;101997.47;;;8.09;100.00
80180;BME280;69505;52.134;5.438;2024-02-21T06:48:50;101994.88;;;8.08;100.00
80180;BME280;69505;52.134;5.438;2024-02-21T06:51:18;101992.34;;;8.06;100.00
80180;BME280;69505;52.134;5.438;2024-02-21T06:53:44;101994.03;;;8.07;100.00
80180;BME280;69505;52.134;5.438;2024-02-21T06:56:11;101988.91;;;8.04;100.00
80180;BME280;69505;52.134;5.438;2024-02-21T06:58:38;101989.75;;;8.05;100.00
80180;BME280;69505;52.134;5.438;2024-02-21T07:01:04;101982.72;;;8.04;100.00
80180;BME280;69505;52.134;5.438;2024-02-21T07:03:31;101983.63;;;8.04;100.00
80180;BME280;69505;52.134;5.438;2024-02-21T07:05:58;101975.69;;;8.04;100.00
80180;BME280;69505;52.134;5.438;2024-02-21T07:08:25;101979.16;;;8.05;100.00
80180;BME280;69505;52.134;5.438;2024-02-21T07:10:52;101977.44;;;8.04;100.00
80180;BME280;69505;52.134;5.438;2024-02-21T07:13:19;101971.28;;;8.03;100.00
80180;BME280;69505;52.134;5.438;2024-02-21T07:15:48;101972.25;;;8.02;100.00
80180;BME280;69505;52.134;5.438;2024-02-21T07:18:14;101972.25;;;8.02;100.00
80180;BME280;69505;52.134;5.438;2024-02-21T07:20:41;101963.41;;;8.02;100.00
80180;BME280;69505;52.134;5.438;2024-02-21T07:23:08;101955.44;;;8.03;100.00
80180;BME280;69505;52.134;5.438;2024-02-21T07:25:35;101968.66;;;8.03;100.00
80180;BME280;69505;52.134;5.438;2024-02-21T07:28:02;101962.50;;;8.03;100.00
80180;BME280;69505;52.134;5.438;2024-02-21T07:30:29;101953.63;;;8.04;100.00
80180;BME280;69505;52.134;5.438;2024-02-21T07:32:55;101951.88;;;8.04;100.00
80180;BME280;69505;52.134;5.438;2024-02-21T07:35:22;101953.63;;;8.04;100.00
80180;BME280;69505;52.134;5.438;2024-02-21T07:37:49;101946.56;;;8.04;100.00
80180;BME280;69505;52.134;5.438;2024-02-21T07:40:16;101947.34;;;8.06;100.00
80180;BME280;69505;52.134;5.438;2024-02-21T07:42:43;101933.97;;;8.09;100.00
80180;BME280;69505;52.134;5.438;2024-02-21T07:45:15;101923.38;;;8.09;100.00
80180;BME280;69505;52.134;5.438;2024-02-21T07:47:42;101916.22;;;8.11;100.00
80180;BME280;69505;52.134;5.438;2024-02-21T07:50:08;101917.78;;;8.16;100.00
80180;BME280;69505;52.134;5.438;2024-02-21T07:52:35;101911.47;;;8.18;100.00
80180;BME280;69505;52.134;5.438;2024-02-21T07:55:02;101906.91;;;8.22;100.00
80180;BME280;69505;52.134;5.438;2024-02-21T07:57:29;101897.16;;;8.22;100.00
80180;BME280;69505;52.134;5.438;2024-02-21T07:59:56;101890.94;;;8.23;100.00
80180;BME280;69505;52.134;5.438;2024-02-21T08:02:23;101897.88;;;8.26;100.00
80180;BME280;69505;52.134;5.438;2024-02-21T08:04:49;101896.84;;;8.28;100.00
80180;BME280;69505;52.134;5.438;2024-02-21T08:07:16;101901.22;;;8.29;100.00
80180;BME280;69505;52.134;5.438;2024-02-21T08:09:43;101898.41;;;8.32;100.00
80180;BME280;69505;52.134;5.438;2024-02-21T08:12:09;101901.78;;;8.36;100.00
80180;BME280;69505;52.134;5.438;2024-02-21T08:14:36;101887.53;;;8.39;100.00
80180;BME280;69505;52.134;5.438;2024-02-21T08:17:02;101878.63;;;8.40;100.00
80180;BME280;69505;52.134;5.438;2024-02-21T08:19:30;101874.06;;;8.43;100.00
80180;BME280;69505;52.134;5.438;2024-02-21T08:21:57;101876.47;;;8.48;100.00
80180;BME280;69505;52.134;5.438;2024-02-21T08:24:24;101878.03;;;8.52;100.00
80180;BME280;69505;52.134;5.438;2024-02-21T08:26:50;101869.19;;;8.53;100.00
80180;BME280;69505;52.134;5.438;2024-02-21T08:29:17;101871.81;;;8.53;100.00
80180;BME280;69505;52.134;5.438;2024-02-21T08:31:43;101875.16;;;8.57;100.00
80180;BME280;69505;52.134;5.438;2024-02-21T08:34:10;101865.34;;;8.59;100.00
80180;BME280;69505;52.134;5.438;2024-02-21T08:36:37;101856.47;;;8.60;100.00
80180;BME280;69505;52.134;5.438;2024-02-21T08:39:03;101855.53;;;8.61;100.00
80180;BME280;69505;52.134;5.438;2024-02-21T08:41:31;101860.66;;;8.64;100.00
80180;BME280;69505;52.134;5.438;2024-02-21T08:44:17;101850.84;;;8.66;100.00
80180;BME280;69505;52.134;5.438;2024-02-21T08:46:44;101849.69;;;8.71;100.00
80180;BME280;69505;52.134;5.438;2024-02-21T08:49:10;101837.28;;;8.72;100.00
80180;BME280;69505;52.134;5.438;2024-02-21T08:51:37;101829.28;;;8.73;100.00
80180;BME280;69505;52.134;5.438;2024-02-21T08:54:04;101825.66;;;8.74;100.00
80180;BME280;69505;52.134;5.438;2024-02-21T08:56:31;101821.06;;;8.78;100.00
80180;BME280;69505;52.134;5.438;2024-02-21T08:58:58;101827.03;;;8.82;100.00
80180;BME280;69505;52.134;5.438;2024-02-21T09:01:26;101827.75;;;8.85;100.00
80180;BME280;69505;52.134;5.438;2024-02-21T09:03:53;101819.88;;;8.84;100.00
80180;BME280;69505;52.134;5.438;2024-02-21T09:06:20;101819.88;;;8.84;100.00
80180;BME280;69505;52.134;5.438;2024-02-21T09:08:47;101825.09;;;8.85;100.00
80180;BME280;69505;52.134;5.438;2024-02-21T09:11:14;101822.13;;;8.91;100.00
80180;BME280;69505;52.134;5.438;2024-02-21T09:13:40;101817.59;;;8.93;100.00
80180;BME280;69505;52.134;5.438;2024-02-21T09:16:07;101814.69;;;8.98;100.00
80180;BME280;69505;52.134;5.438;2024-02-21T09:18:35;101814.44;;;9.03;100.00
80180;BME280;69505;52.134;5.438;2024-02-21T09:21:02;101806.59;;;9.01;100.00
80180;BME280;69505;52.134;5.438;2024-02-21T09:23:29;101804.78;;;9.02;100.00
80180;BME280;69505;52.134;5.438;2024-02-21T09:25:58;101799.56;;;9.00;100.00
80180;BME280;69505;52.134;5.438;2024-02-21T09:28:27;101795.22;;;8.99;100.00
80180;BME280;69505;52.134;5.438;2024-02-21T09:30:54;101791.34;;;9.05;100.00
80180;BME280;69505;52.134;5.438;2024-02-21T09:33:20;101790.50;;;9.04;100.00
80180;BME280;69505;52.134;5.438;2024-02-21T09:35:58;101778.97;;;9.05;100.00
80180;BME280;69505;52.134;5.438;2024-02-21T09:38:25;101770.16;;;9.05;100.00
80180;BME280;69505;52.134;5.438;2024-02-21T09:41:18;101768.03;;;9.11;100.00
80180;BME280;69505;52.134;5.438;2024-02-21T09:43:52;101760.75;;;9.15;100.00
80180;BME280;69505;52.134;5.438;2024-02-21T09:46:29;101745.53;;;9.19;100.00
80180;BME280;69505;52.134;5.438;2024-02-21T09:49:11;101748.09;;;9.20;100.00
80180;BME280;69505;52.134;5.438;2024-02-21T09:51:41;101756.72;;;9.24;100.00
80180;BME280;69505;52.134;5.438;2024-02-21T09:54:10;101729.38;;;9.23;100.00
80180;BME280;69505;52.134;5.438;2024-02-21T09:56:45;101729.63;;;9.19;100.00
80180;BME280;69505;52.134;5.438;2024-02-21T09:59:12;101723.50;;;9.18;100.00
80180;BME280;69505;52.134;5.438;2024-02-21T10:01:38;101721.34;;;9.25;100.00
80180;BME280;69505;52.134;5.438;2024-02-21T10:04:05;101710.66;;;9.26;100.00
80180;BME280;69505;52.134;5.438;2024-02-21T10:06:33;101700.06;;;9.26;100.00
80180;BME280;69505;52.134;5.438;2024-02-21T10:09:00;101704.13;;;9.32;100.00
80180;BME280;69505;52.134;5.438;2024-02-21T10:11:27;101692.31;;;9.38;100.00
80180;BME280;69505;52.134;5.438;2024-02-21T10:14:07;101690.06;;;9.46;100.00
80180;BME280;69505;52.134;5.438;2024-02-21T10:16:34;101683.56;;;9.51;100.00
80180;BME280;69505;52.134;5.438;2024-02-21T10:19:01;101679.97;;;9.52;100.00
80180;BME280;69505;52.134;5.438;2024-02-21T10:21:30;101677.22;;;9.54;100.00
80180;BME280;69505;52.134;5.438;2024-02-21T10:23:56;101661.72;;;9.62;100.00
80180;BME280;69505;52.134;5.438;2024-02-21T10:26:23;101662.97;;;9.71;100.00
80180;BME280;69505;52.134;5.438;2024-02-21T10:28:50;101662.50;;;9.79;100.00
80180;BME280;69505;52.134;5.438;2024-02-21T10:31:23;101652.25;;;9.87;100.00
80180;BME280;69505;52.134;5.438;2024-02-21T10:33:58;101631.63;;;9.92;100.00
80180;BME280;69505;52.134;5.438;2024-02-21T10:36:26;101640.72;;;10.02;100.00
80180;BME280;69505;52.134;5.438;2024-02-21T10:38:53;101636.94;;;10.06;100.00
80180;BME280;69505;52.134;5.438;2024-02-21T10:41:21;101637.97;;;10.04;100.00
80180;BME280;69505;52.134;5.438;2024-02-21T10:43:53;101633.53;;;10.04;100.00
80180;BME280;69505;52.134;5.438;2024-02-21T10:46:23;101619.41;;;10.04;100.00
80180;BME280;69505;52.134;5.438;2024-02-21T10:49:09;101615.88;;;10.03;100.00
80180;BME280;69505;52.134;5.438;2024-02-21T10:51:42;101602.13;;;9.96;100.00
80180;BME280;69505;52.134;5.438;2024-02-21T10:56:51;101592.56;;;9.94;100.00
80180;BME280;69505;52.134;5.438;2024-02-21T10:59:19;101575.88;;;9.92;100.00
80180;BME280;69505;52.134;5.438;2024-02-21T11:01:47;101547.63;;;9.91;100.00
80180;BME280;69505;52.134;5.438;2024-02-21T11:04:14;101550.13;;;9.94;100.00
80180;BME280;69505;52.134;5.438;2024-02-21T11:06:41;101528.19;;;10.05;100.00
80180;BME280;69505;52.134;5.438;2024-02-21T11:09:10;101524.31;;;10.10;100.00
80180;BME280;69505;52.134;5.438;2024-02-21T11:11:39;101525.16;;;10.11;100.00
80180;BME280;69505;52.134;5.438;2024-02-21T11:14:17;101544.03;;;10.06;100.00
80180;BME280;69505;52.134;5.438;2024-02-21T11:16:45;101596.38;;;10.04;100.00
80180;BME280;69505;52.134;5.438;2024-02-21T11:19:24;101597.50;;;9.86;100.00
80180;BME280;69505;52.134;5.438;2024-02-21T11:21:52;101595.03;;;9.68;100.00
80180;BME280;69505;52.134;5.438;2024-02-21T11:24:30;101592.84;;;9.61;100.00
80180;BME280;69505;52.134;5.438;2024-02-21T11:27:21;101586.00;;;9.57;100.00
80180;BME280;69505;52.134;5.438;2024-02-21T11:29:55;101580.78;;;9.55;100.00
80180;BME280;69505;52.134;5.438;2024-02-21T11:32:22;101571.50;;;9.48;100.00
80180;BME280;69505;52.134;5.438;2024-02-21T11:35:00;101570.84;;;9.44;100.00
80180;BME280;69505;52.134;5.438;2024-02-21T11:37:31;101567.34;;;9.44;100.00
80180;BME280;69505;52.134;5.438;2024-02-21T11:40:00;101554.47;;;9.38;100.00
80180;BME280;69505;52.134;5.438;2024-02-21T11:42:27;101538.75;;;9.34;100.00
80180;BME280;69505;52.134;5.438;2024-02-21T11:44:56;101536.25;;;9.31;100.00
80180;BME280;69505;52.134;5.438;2024-02-21T11:47:24;101528.50;;;9.28;100.00
80180;BME280;69505;52.134;5.438;2024-02-21T11:49:51;101528.69;;;9.25;100.00
80180;BME280;69505;52.134;5.438;2024-02-21T11:52:25;101519.97;;;9.23;100.00
80180;BME280;69505;52.134;5.438;2024-02-21T11:54:53;101506.56;;;9.26;100.00
80180;BME280;69505;52.134;5.438;2024-02-21T11:57:22;101517.03;;;9.28;100.00
80180;BME280;69505;52.134;5.438;2024-02-21T11:59:48;101500.28;;;9.27;100.00
80180;BME280;69505;52.134;5.438;2024-02-21T12:02:23;101454.38;;;9.41;100.00
80180;BME280;69505;52.134;5.438;2024-02-21T12:04:52;101455.28;;;9.69;100.00
80180;BME280;69505;52.134;5.438;2024-02-21T12:07:21;101440.41;;;9.81;100.00
80180;BME280;69505;52.134;5.438;2024-02-21T12:09:51;101421.38;;;10.01;100.00
80180;BME280;69505;52.134;5.438;2024-02-21T12:12:19;101407.72;;;10.07;100.00
80180;BME280;69505;52.134;5.438;2024-02-21T12:14:55;101400.84;;;10.18;100.00
80180;BME280;69505;52.134;5.438;2024-02-21T12:17:24;101382.69;;;10.24;100.00
80180;BME280;69505;52.134;5.438;2024-02-21T12:19:51;101386.38;;;10.36;100.00
80180;BME280;69505;52.134;5.438;2024-02-21T12:22:18;101385.25;;;10.53;100.00
80180;BME280;69505;52.134;5.438;2024-02-21T12:24:45;101390.78;;;10.63;100.00
80180;BME280;69505;52.134;5.438;2024-02-21T12:27:14;101382.41;;;10.69;100.00
80180;BME280;69505;52.134;5.438;2024-02-21T12:29:41;101380.78;;;10.66;100.00
80180;BME280;69505;52.134;5.438;2024-02-21T12:32:08;101364.22;;;10.63;100.00
80180;BME280;69505;52.134;5.438;2024-02-21T12:34:34;101346.56;;;10.62;100.00
80180;BME280;69505;52.134;5.438;2024-02-21T12:37:18;101350.38;;;10.57;100.00
80180;BME280;69505;52.134;5.438;2024-02-21T12:39:46;101335.63;;;10.53;100.00
80180;BME280;69505;52.134;5.438;2024-02-21T12:42:13;101332.53;;;10.47;100.00
80180;BME280;69505;52.134;5.438;2024-02-21T12:44:40;101326.16;;;10.49;100.00
80180;BME280;69505;52.134;5.438;2024-02-21T12:47:06;101315.00;;;10.44;100.00
80180;BME280;69505;52.134;5.438;2024-02-21T12:49:34;101304.50;;;10.43;100.00
80180;BME280;69505;52.134;5.438;2024-02-21T12:52:01;101296.19;;;10.47;100.00
80180;BME280;69505;52.134;5.438;2024-02-21T12:54:30;101301.75;;;10.57;100.00